createdAt,value
2019-01-23T00:01:59.026Z,0.30
2019-01-23T00:04:49.305Z,0.30
2019-01-23T00:07:40.049Z,0.30
2019-01-23T00:10:30.408Z,0.30
2019-01-23T00:13:20.757Z,0.30
2019-01-23T00:16:10.937Z,0.30
2019-01-23T00:19:01.357Z,0.30
2019-01-23T00:21:51.750Z,0.40
2019-01-23T00:24:42.172Z,0.40
2019-01-23T00:27:32.422Z,0.40
2019-01-23T00:30:22.742Z,0.30
2019-01-23T00:33:13.610Z,0.30
2019-01-23T00:36:03.850Z,0.30
2019-01-23T00:38:54.197Z,0.30
2019-01-23T00:41:44.373Z,0.30
2019-01-23T00:44:35.099Z,0.30
2019-01-23T00:47:25.066Z,0.30
2019-01-23T00:50:16.086Z,0.20
2019-01-23T00:53:06.773Z,0.20
2019-01-23T00:55:57.012Z,0.20
2019-01-23T00:58:49.227Z,0.20
2019-01-23T01:01:39.094Z,0.20
2019-01-23T01:04:29.569Z,0.20
2019-01-23T01:07:20.143Z,0.20
2019-01-23T01:10:11.821Z,0.20
2019-01-23T01:13:02.058Z,0.20
2019-01-23T01:15:52.093Z,0.20
2019-01-23T01:18:42.111Z,0.20
2019-01-23T01:21:32.402Z,0.20
2019-01-23T01:24:22.586Z,0.20
2019-01-23T01:27:13.104Z,0.20
2019-01-23T01:30:03.466Z,0.20
2019-01-23T01:32:55.013Z,0.20
2019-01-23T01:35:44.989Z,0.20
2019-01-23T01:38:37.094Z,0.20
2019-01-23T01:41:27.658Z,0.20
2019-01-23T01:44:17.754Z,0.20
2019-01-23T01:47:07.785Z,0.20
2019-01-23T01:49:57.863Z,0.20
2019-01-23T01:52:48.496Z,0.20
2019-01-23T01:55:38.810Z,0.20
2019-01-23T01:58:29.255Z,0.20
2019-01-23T02:01:19.693Z,0.20
2019-01-23T02:04:09.780Z,0.20
2019-01-23T02:06:59.993Z,0.20
2019-01-23T02:09:51.222Z,0.20
2019-01-23T02:12:41.494Z,0.20
2019-01-23T02:15:31.569Z,0.10
2019-01-23T02:18:21.904Z,0.20
2019-01-23T02:21:12.206Z,0.10
2019-01-23T02:24:02.621Z,0.10
2019-01-23T02:26:52.695Z,0.10
2019-01-23T02:29:42.914Z,0.10
2019-01-23T02:32:33.277Z,0.20
2019-01-23T02:35:23.638Z,0.10
2019-01-23T02:38:14.378Z,0.10
2019-01-23T02:41:04.658Z,0.10
2019-01-23T02:43:54.824Z,0.10
2019-01-23T02:46:44.874Z,0.10
2019-01-23T02:49:34.886Z,0.10
2019-01-23T02:52:24.966Z,0.10
2019-01-23T02:55:15.510Z,0.10
2019-01-23T02:58:06.491Z,0.10
2019-01-23T03:00:56.738Z,0.10
2019-01-23T03:03:46.943Z,0.10
2019-01-23T03:06:37.139Z,0.10
2019-01-23T03:09:27.247Z,0.10
2019-01-23T03:12:19.285Z,0.10
2019-01-23T03:15:10.890Z,0.10
2019-01-23T03:18:01.301Z,0.10
2019-01-23T03:20:51.701Z,0.10
2019-01-23T03:23:42.133Z,0.10
2019-01-23T03:26:32.202Z,0.10
2019-01-23T03:29:24.672Z,0.00
2019-01-23T03:32:14.555Z,0.10
2019-01-23T03:35:05.802Z,0.00
2019-01-23T03:37:56.337Z,0.00
2019-01-23T03:40:46.498Z,0.00
2019-01-23T03:43:37.363Z,0.00
2019-01-23T03:46:27.653Z,0.00
2019-01-23T03:49:18.558Z,0.00
2019-01-23T03:52:08.840Z,0.00
2019-01-23T03:54:59.126Z,0.00
2019-01-23T03:57:49.435Z,-0.10
2019-01-23T04:00:39.470Z,0.00
2019-01-23T04:03:29.774Z,-0.10
2019-01-23T04:06:20.074Z,-0.10
2019-01-23T04:09:10.117Z,-0.10
2019-01-23T04:12:00.442Z,-0.10
2019-01-23T04:14:50.445Z,-0.10
2019-01-23T04:17:40.813Z,0.00
2019-01-23T04:20:31.994Z,0.00
2019-01-23T04:23:22.219Z,0.00
2019-01-23T04:26:12.580Z,0.00
2019-01-23T04:29:03.129Z,0.00
2019-01-23T04:31:53.479Z,0.00
2019-01-23T04:34:43.786Z,0.00
2019-01-23T04:37:34.285Z,0.00
2019-01-23T04:40:24.239Z,0.00
2019-01-23T04:43:14.563Z,0.00
2019-01-23T04:46:04.877Z,0.00
2019-01-23T04:48:55.125Z,0.00
2019-01-23T04:52:07.400Z,0.00
2019-01-23T04:54:57.401Z,0.00
2019-01-23T04:57:47.627Z,0.00
2019-01-23T05:00:38.677Z,0.00
2019-01-23T05:03:29.014Z,0.00
2019-01-23T05:06:19.134Z,0.00
2019-01-23T05:09:10.050Z,0.00
2019-01-23T05:12:00.022Z,0.00
2019-01-23T05:14:50.386Z,0.00
2019-01-23T05:17:40.923Z,0.00
2019-01-23T05:20:31.182Z,0.10
2019-01-23T05:23:21.233Z,0.10
2019-01-23T05:26:11.347Z,0.00
2019-01-23T05:29:01.370Z,0.00
2019-01-23T05:31:51.631Z,0.10
2019-01-23T05:34:41.942Z,0.20
2019-01-23T05:37:32.221Z,0.20
2019-01-23T05:40:22.234Z,0.20
2019-01-23T05:43:12.462Z,0.30
2019-01-23T05:46:02.925Z,0.20
2019-01-23T05:48:53.699Z,0.30
2019-01-23T05:51:43.971Z,0.30
2019-01-23T05:54:33.998Z,0.30
2019-01-23T05:57:24.290Z,0.30
2019-01-23T06:00:16.785Z,0.30
2019-01-23T06:03:07.054Z,0.30
2019-01-23T06:05:57.330Z,0.30
2019-01-23T06:08:47.347Z,0.30
2019-01-23T06:11:37.713Z,0.30
2019-01-23T06:14:28.043Z,0.30
2019-01-23T06:17:18.042Z,0.30
2019-01-23T06:20:11.706Z,0.30
2019-01-23T06:23:02.177Z,0.30
2019-01-23T06:25:52.478Z,0.30
2019-01-23T06:28:42.381Z,0.20
2019-01-23T06:31:32.719Z,0.20
2019-01-23T06:34:23.069Z,0.30
2019-01-23T06:37:13.350Z,0.20
2019-01-23T06:40:05.353Z,0.30
2019-01-23T06:42:56.572Z,0.30
2019-01-23T06:45:46.518Z,0.30
2019-01-23T06:48:37.683Z,0.30
2019-01-23T06:51:27.785Z,0.30
2019-01-23T06:54:17.981Z,0.20
2019-01-23T06:57:08.158Z,0.20
2019-01-23T06:59:58.401Z,0.20
2019-01-23T07:02:48.943Z,0.20
2019-01-23T07:05:39.242Z,0.20
2019-01-23T07:08:29.278Z,0.30
2019-01-23T07:11:19.774Z,0.20
2019-01-23T07:14:18.947Z,0.30
2019-01-23T07:17:11.922Z,0.20
2019-01-23T07:20:02.262Z,0.20
2019-01-23T07:22:52.423Z,0.30
2019-01-23T07:25:51.686Z,0.20
2019-01-23T07:28:41.949Z,0.30
2019-01-23T07:31:32.470Z,0.20
2019-01-23T07:34:22.918Z,0.30
2019-01-23T07:37:12.981Z,0.30
2019-01-23T07:40:03.296Z,0.30
2019-01-23T07:42:53.411Z,0.30
2019-01-23T07:45:43.774Z,0.30
2019-01-23T07:48:33.693Z,0.30
2019-01-23T07:51:24.190Z,0.30
2019-01-23T07:54:14.065Z,0.30
2019-01-23T07:57:04.260Z,0.30
2019-01-23T07:59:55.250Z,0.30
2019-01-23T08:02:45.658Z,0.30
2019-01-23T08:05:35.942Z,0.30
2019-01-23T08:08:26.338Z,0.30
2019-01-23T08:11:16.386Z,0.30
2019-01-23T08:14:06.870Z,0.40
2019-01-23T08:16:57.609Z,0.40
2019-01-23T08:19:47.694Z,0.40
2019-01-23T08:22:37.968Z,0.40
2019-01-23T08:25:28.200Z,0.40
2019-01-23T08:28:18.535Z,0.30
2019-01-23T08:31:09.035Z,0.30
2019-01-23T08:33:59.388Z,0.30
2019-01-23T08:36:49.273Z,0.40
2019-01-23T08:39:39.594Z,0.30
2019-01-23T08:42:29.682Z,0.40
2019-01-23T08:45:19.694Z,0.40
2019-01-23T08:48:10.289Z,0.40
2019-01-23T08:51:00.621Z,0.50
2019-01-23T08:53:50.967Z,0.50
2019-01-23T08:56:41.522Z,0.50
2019-01-23T08:59:32.138Z,0.50
2019-01-23T09:02:22.470Z,0.60
2019-01-23T09:05:13.539Z,0.60
2019-01-23T09:08:03.594Z,0.60
2019-01-23T09:10:53.687Z,0.70
2019-01-23T09:13:43.962Z,0.60
2019-01-23T09:16:34.874Z,0.70
2019-01-23T09:19:24.975Z,0.70
2019-01-23T09:22:15.311Z,0.80
2019-01-23T09:25:07.495Z,0.80
2019-01-23T09:27:57.850Z,0.80
2019-01-23T09:31:28.746Z,0.80
2019-01-23T09:34:35.547Z,0.90
2019-01-23T09:38:16.199Z,0.70
2019-01-23T09:41:13.023Z,0.80
2019-01-23T09:44:40.181Z,1.00
2019-01-23T09:47:52.414Z,1.00
2019-01-23T09:51:11.631Z,1.00
2019-01-23T09:54:07.375Z,1.20
2019-01-23T09:56:57.426Z,1.50
2019-01-23T09:59:48.347Z,1.80
2019-01-23T10:02:38.690Z,1.80
2019-01-23T10:05:29.089Z,1.70
2019-01-23T10:08:19.493Z,1.90
2019-01-23T10:11:09.890Z,2.00
2019-01-23T10:14:00.010Z,2.10
2019-01-23T10:16:49.976Z,2.10
2019-01-23T10:19:41.298Z,2.10
2019-01-23T10:22:31.570Z,2.00
2019-01-23T10:25:21.812Z,2.00
2019-01-23T10:28:11.854Z,2.20
2019-01-23T10:31:06.572Z,2.40
2019-01-23T10:33:53.646Z,2.60
2019-01-23T10:36:43.902Z,2.60
2019-01-23T10:39:34.439Z,2.70
2019-01-23T10:42:24.999Z,2.70
2019-01-23T10:45:15.313Z,2.50
2019-01-23T10:48:05.789Z,2.20
2019-01-23T10:50:56.514Z,2.00
2019-01-23T10:53:46.525Z,1.70
2019-01-23T10:56:37.791Z,1.60
2019-01-23T10:59:27.690Z,1.60
2019-01-23T11:02:18.537Z,1.70
2019-01-23T11:05:10.828Z,1.80
2019-01-23T11:08:01.287Z,2.00
2019-01-23T11:10:51.413Z,2.20
2019-01-23T11:13:41.509Z,2.30
2019-01-23T11:16:31.678Z,2.50
2019-01-23T11:19:21.801Z,2.60
2019-01-23T11:22:12.077Z,2.60
2019-01-23T11:25:02.294Z,2.70
2019-01-23T11:27:53.446Z,2.70
2019-01-23T11:30:44.996Z,2.70
2019-01-23T11:33:34.926Z,2.80
2019-01-23T11:36:24.941Z,2.90
2019-01-23T11:39:15.066Z,2.90
2019-01-23T11:42:06.149Z,2.90
2019-01-23T11:44:56.342Z,2.80
2019-01-23T11:47:46.918Z,2.70
2019-01-23T11:50:37.101Z,2.70
2019-01-23T11:53:27.042Z,2.80
2019-01-23T11:56:17.345Z,2.80
2019-01-23T11:59:07.633Z,2.80
2019-01-23T12:01:58.058Z,2.80
2019-01-23T12:04:48.346Z,2.90
2019-01-23T12:07:38.261Z,2.90
2019-01-23T12:10:28.597Z,3.00
2019-01-23T12:13:18.726Z,2.90
2019-01-23T12:16:09.011Z,3.00
2019-01-23T12:18:59.177Z,3.00
2019-01-23T12:21:49.257Z,3.10
2019-01-23T12:24:39.214Z,3.10
2019-01-23T12:27:29.406Z,3.10
2019-01-23T12:30:22.765Z,3.20
2019-01-23T12:33:12.860Z,3.10
2019-01-23T12:36:03.168Z,3.10
2019-01-23T12:38:53.542Z,3.10
2019-01-23T12:41:43.820Z,3.10
2019-01-23T12:44:34.253Z,3.00
2019-01-23T12:47:24.506Z,3.00
2019-01-23T12:50:16.257Z,3.00
2019-01-23T12:53:06.569Z,2.90
2019-01-23T12:55:57.501Z,2.90
2019-01-23T12:58:47.806Z,2.90
2019-01-23T13:01:42.238Z,2.90
2019-01-23T13:04:30.225Z,2.80
2019-01-23T13:07:20.226Z,2.80
2019-01-23T13:10:14.193Z,2.70
2019-01-23T13:13:04.358Z,2.50
2019-01-23T13:15:54.198Z,2.40
2019-01-23T13:18:44.198Z,2.30
2019-01-23T13:21:34.517Z,2.30
2019-01-23T13:24:24.762Z,2.50
2019-01-23T13:27:14.935Z,2.90
2019-01-23T13:30:07.009Z,3.40
2019-01-23T13:32:57.301Z,3.80
2019-01-23T13:35:47.614Z,4.40
2019-01-23T13:38:37.583Z,4.80
2019-01-23T13:41:27.896Z,5.20
2019-01-23T13:44:18.251Z,6.30
2019-01-23T13:47:08.290Z,8.10
2019-01-23T13:49:58.334Z,10.10
2019-01-23T13:52:48.514Z,11.60
2019-01-23T13:55:38.945Z,12.50
2019-01-23T13:58:29.354Z,12.70
2019-01-23T14:01:19.425Z,12.50
2019-01-23T14:04:09.332Z,12.10
2019-01-23T14:06:59.465Z,11.30
2019-01-23T14:09:49.719Z,10.60
2019-01-23T14:12:40.017Z,10.40
2019-01-23T14:15:35.683Z,10.00
2019-01-23T14:18:25.686Z,9.70
2019-01-23T14:21:15.978Z,8.90
2019-01-23T14:24:06.382Z,8.20
2019-01-23T14:26:56.686Z,7.40
2019-01-23T14:29:46.957Z,6.70
2019-01-23T14:32:37.370Z,6.10
2019-01-23T14:35:27.999Z,5.30
2019-01-23T14:38:18.114Z,5.10
2019-01-23T14:41:08.455Z,6.20
2019-01-23T14:43:59.147Z,7.50
2019-01-23T14:46:49.481Z,8.50
2019-01-23T14:49:39.710Z,9.10
2019-01-23T14:52:29.874Z,9.20
2019-01-23T14:55:20.087Z,9.20
2019-01-23T14:58:10.446Z,8.70
2019-01-23T15:01:00.955Z,7.70
2019-01-23T15:03:51.418Z,6.50
2019-01-23T15:06:41.826Z,6.00
2019-01-23T15:09:32.034Z,5.70
2019-01-23T15:12:22.338Z,5.60
2019-01-23T15:15:12.574Z,5.90
2019-01-23T15:18:02.598Z,5.90
2019-01-23T15:20:52.797Z,6.10
2019-01-23T15:23:42.981Z,5.80
2019-01-23T15:26:33.594Z,4.80
2019-01-23T15:29:23.706Z,4.40
2019-01-23T15:32:17.301Z,4.20
2019-01-23T15:35:06.806Z,4.40
2019-01-23T15:37:56.934Z,4.50
2019-01-23T15:40:46.946Z,4.20
2019-01-23T15:43:37.114Z,3.70
2019-01-23T15:46:27.444Z,3.00
2019-01-23T15:49:17.862Z,2.30
2019-01-23T15:52:08.054Z,1.70
2019-01-23T15:54:58.534Z,1.10
2019-01-23T15:57:48.567Z,0.70
2019-01-23T16:00:39.042Z,0.40
2019-01-23T16:03:29.474Z,0.10
2019-01-23T16:06:19.902Z,-0.20
2019-01-23T16:09:10.251Z,-0.60
2019-01-23T16:12:00.210Z,-0.90
2019-01-23T16:14:50.266Z,-1.10
2019-01-23T16:17:40.584Z,-1.40
2019-01-23T16:20:30.816Z,-1.50
2019-01-23T16:23:21.007Z,-1.50
2019-01-23T16:26:11.153Z,-1.60
2019-01-23T16:29:01.489Z,-1.70
2019-01-23T16:31:51.921Z,-1.80
2019-01-23T16:34:42.157Z,-1.90
2019-01-23T16:37:32.146Z,-1.90
2019-01-23T16:40:22.071Z,-2.00
2019-01-23T16:43:12.353Z,-2.10
2019-01-23T16:46:02.385Z,-2.10
2019-01-23T16:48:52.438Z,-2.20
2019-01-23T16:51:43.101Z,-2.20
2019-01-23T16:54:33.571Z,-2.20
2019-01-23T16:57:23.740Z,-2.20
2019-01-23T17:00:16.970Z,-2.20
2019-01-23T17:03:07.358Z,-2.30
2019-01-23T17:05:57.835Z,-2.30
2019-01-23T17:08:48.055Z,-2.40
2019-01-23T17:11:38.494Z,-2.40
2019-01-23T17:14:29.178Z,-2.50
2019-01-23T17:17:19.374Z,-2.60
2019-01-23T17:20:14.190Z,-2.60
2019-01-23T17:23:05.126Z,-2.60
2019-01-23T17:25:55.374Z,-2.60
2019-01-23T17:28:45.842Z,-2.50
2019-01-23T17:31:36.759Z,-2.30
2019-01-23T17:34:26.942Z,-2.10
2019-01-23T17:37:17.196Z,-1.90
2019-01-23T17:40:09.506Z,-1.70
2019-01-23T17:42:59.721Z,-1.60
2019-01-23T17:45:50.134Z,-1.50
2019-01-23T17:48:41.085Z,-1.40
2019-01-23T17:51:31.439Z,-1.30
2019-01-23T17:54:21.534Z,-1.30
2019-01-23T17:57:11.546Z,-1.20
2019-01-23T18:00:01.843Z,-1.20
2019-01-23T18:02:52.864Z,-1.10
2019-01-23T18:05:43.826Z,-1.00
2019-01-23T18:08:34.018Z,-0.90
2019-01-23T18:11:24.459Z,-0.90
2019-01-23T18:14:14.550Z,-0.80
2019-01-23T18:17:06.425Z,-0.70
2019-01-23T18:19:56.618Z,-0.70
2019-01-23T18:22:46.845Z,-0.70
2019-01-23T18:25:37.491Z,-0.70
2019-01-23T18:28:27.430Z,-0.70
2019-01-23T18:31:29.136Z,-0.60
2019-01-23T18:35:01.273Z,-0.60
2019-01-23T18:38:23.250Z,-0.60
2019-01-23T18:42:06.598Z,-0.60
2019-01-23T18:45:06.867Z,-0.60
2019-01-23T18:48:39.668Z,-0.60
2019-01-23T18:51:41.913Z,-0.60
2019-01-23T18:54:32.525Z,-0.60
2019-01-23T18:57:25.598Z,-0.60
2019-01-23T19:00:19.270Z,-0.50
2019-01-23T19:03:09.717Z,-0.50
2019-01-23T19:06:00.246Z,-0.50
2019-01-23T19:08:50.537Z,-0.50
2019-01-23T19:11:40.842Z,-0.50
2019-01-23T19:14:31.093Z,-0.50
2019-01-23T19:17:21.365Z,-0.50
2019-01-23T19:20:15.690Z,-0.40
2019-01-23T19:23:06.234Z,-0.50
2019-01-23T19:25:56.787Z,-0.50
2019-01-23T19:28:46.878Z,-0.50
2019-01-23T19:31:37.061Z,-0.40
2019-01-23T19:34:27.210Z,-0.40
2019-01-23T19:37:17.662Z,-0.40
2019-01-23T19:40:11.011Z,-0.40
2019-01-23T19:43:01.082Z,-0.30
2019-01-23T19:45:51.378Z,-0.30
2019-01-23T19:48:41.860Z,-0.30
2019-01-23T19:51:31.754Z,-0.30
2019-01-23T19:54:22.673Z,-0.30
2019-01-23T19:57:14.061Z,-0.30
2019-01-23T20:00:05.310Z,-0.30
2019-01-23T20:02:55.523Z,-0.30
2019-01-23T20:05:45.850Z,-0.30
2019-01-23T20:08:36.774Z,-0.30
2019-01-23T20:11:27.061Z,-0.30
2019-01-23T20:14:17.402Z,-0.30
2019-01-23T20:17:07.941Z,-0.30
2019-01-23T20:19:58.251Z,-0.30
2019-01-23T20:22:48.366Z,-0.20
2019-01-23T20:25:38.241Z,-0.20
2019-01-23T20:28:28.633Z,-0.20
2019-01-23T20:31:18.697Z,-0.20
2019-01-23T20:34:08.803Z,-0.20
2019-01-23T20:36:59.101Z,-0.20
2019-01-23T20:39:49.534Z,-0.20
2019-01-23T20:42:39.626Z,-0.20
2019-01-23T20:45:30.086Z,-0.20
2019-01-23T20:48:20.554Z,-0.20
2019-01-23T20:51:10.610Z,-0.20
2019-01-23T20:54:01.333Z,-0.20
2019-01-23T20:56:51.601Z,-0.30
2019-01-23T20:59:41.653Z,-0.30
2019-01-23T21:02:32.022Z,-0.30
2019-01-23T21:05:21.963Z,-0.30
2019-01-23T21:08:12.334Z,-0.20
2019-01-23T21:11:02.501Z,-0.20
2019-01-23T21:13:52.956Z,-0.30
2019-01-23T21:16:43.066Z,-0.30
2019-01-23T21:19:33.314Z,-0.30
2019-01-23T21:22:23.494Z,-0.30
2019-01-23T21:25:14.278Z,-0.30
2019-01-23T21:28:04.358Z,-0.30
2019-01-23T21:30:54.432Z,-0.30
2019-01-23T21:33:44.742Z,-0.30
2019-01-23T21:36:35.534Z,-0.30
2019-01-23T21:39:25.594Z,-0.20
2019-01-23T21:42:15.786Z,-0.20
2019-01-23T21:45:07.485Z,-0.20
2019-01-23T21:47:58.138Z,-0.20
2019-01-23T21:50:48.400Z,-0.20
2019-01-23T21:53:38.385Z,-0.20
2019-01-23T21:56:28.714Z,-0.10
2019-01-23T21:59:18.905Z,-0.10
2019-01-23T22:02:09.209Z,-0.10
2019-01-23T22:04:59.334Z,-0.10
2019-01-23T22:07:49.630Z,-0.10
2019-01-23T22:10:39.795Z,-0.10
2019-01-23T22:13:30.226Z,-0.20
2019-01-23T22:16:20.522Z,-0.20
2019-01-23T22:19:10.785Z,-0.20
2019-01-23T22:22:01.053Z,-0.20
2019-01-23T22:24:51.458Z,-0.20
2019-01-23T22:27:41.806Z,-0.20
2019-01-23T22:30:33.175Z,-0.20
2019-01-23T22:33:23.468Z,-0.20
2019-01-23T22:36:13.479Z,-0.20
2019-01-23T22:39:05.273Z,-0.20
2019-01-23T22:41:56.753Z,-0.20
2019-01-23T22:44:47.493Z,-0.20
2019-01-23T22:47:37.713Z,-0.20
2019-01-23T22:50:28.925Z,-0.20
2019-01-23T22:53:19.174Z,-0.20
2019-01-23T22:56:09.523Z,-0.20
2019-01-23T22:58:59.856Z,-0.20
2019-01-23T23:01:50.159Z,-0.20
2019-01-23T23:04:40.187Z,-0.20
2019-01-23T23:07:30.253Z,-0.20
2019-01-23T23:10:20.274Z,-0.20
2019-01-23T23:13:11.065Z,-0.20
2019-01-23T23:16:01.518Z,-0.20
2019-01-23T23:18:51.602Z,-0.10
2019-01-23T23:21:41.681Z,-0.10
2019-01-23T23:24:31.770Z,-0.20
2019-01-23T23:27:21.966Z,-0.20
2019-01-23T23:30:13.249Z,-0.20
2019-01-23T23:33:03.241Z,-0.20
2019-01-23T23:35:53.513Z,-0.20
2019-01-23T23:38:43.785Z,-0.20
2019-01-23T23:41:34.101Z,-0.20
2019-01-23T23:44:24.573Z,-0.20
2019-01-23T23:47:14.737Z,-0.20
2019-01-23T23:50:05.290Z,-0.20
2019-01-23T23:52:55.209Z,-0.20
2019-01-23T23:55:45.465Z,-0.20
2019-01-23T23:58:35.354Z,-0.20
